sensor_id;sensor_type;location;lat;lon;timestamp;temperature;humidity
4677;DHT22;2352;48.180;11.478;2022-12-18T00:00:00;0.90;94.20
4677;DHT22;2352;48.180;11.478;2022-12-18T00:03:03;0.80;94.10
4677;DHT22;2352;48.180;11.478;2022-12-18T00:06:08;0.80;94.10
4677;DHT22;2352;48.180;11.478;2022-12-18T00:09:11;0.70;94.00
4677;DHT22;2352;48.180;11.478;2022-12-18T00:12:14;0.60;94.30
4677;DHT22;2352;48.180;11.478;2022-12-18T00:15:23;0.70;94.20
4677;DHT22;2352;48.180;11.478;2022-12-18T00:18:26;0.70;94.10
4677;DHT22;2352;48.180;11.478;2022-12-18T00:21:30;0.60;94.20
4677;DHT22;2352;48.180;11.478;2022-12-18T00:24:33;0.60;94.20
4677;DHT22;2352;48.180;11.478;2022-12-18T00:27:36;0.60;94.10
4677;DHT22;2352;48.180;11.478;2022-12-18T00:30:41;0.70;94.00
4677;DHT22;2352;48.180;11.478;2022-12-18T00:33:44;0.60;94.00
4677;DHT22;2352;48.180;11.478;2022-12-18T00:36:48;0.60;94.10
4677;DHT22;2352;48.180;11.478;2022-12-18T00:39:51;0.60;94.00
4677;DHT22;2352;48.180;11.478;2022-12-18T00:42:54;0.60;94.10
4677;DHT22;2352;48.180;11.478;2022-12-18T00:46:00;0.60;94.10
4677;DHT22;2352;48.180;11.478;2022-12-18T00:49:04;0.60;93.90
4677;DHT22;2352;48.180;11.478;2022-12-18T00:52:07;0.50;94.10
4677;DHT22;2352;48.180;11.478;2022-12-18T00:55:10;0.60;94.10
4677;DHT22;2352;48.180;11.478;2022-12-18T00:58:15;0.50;94.10
4677;DHT22;2352;48.180;11.478;2022-12-18T01:01:20;0.50;94.20
4677;DHT22;2352;48.180;11.478;2022-12-18T01:04:23;0.50;94.20
4677;DHT22;2352;48.180;11.478;2022-12-18T01:07:26;0.50;94.30
4677;DHT22;2352;48.180;11.478;2022-12-18T01:10:29;0.40;94.30
4677;DHT22;2352;48.180;11.478;2022-12-18T01:13:31;0.40;94.20
4677;DHT22;2352;48.180;11.478;2022-12-18T01:16:36;0.40;94.10
4677;DHT22;2352;48.180;11.478;2022-12-18T01:19:39;0.40;93.70
4677;DHT22;2352;48.180;11.478;2022-12-18T01:22:42;0.40;93.80
4677;DHT22;2352;48.180;11.478;2022-12-18T01:25:44;0.40;93.60
4677;DHT22;2352;48.180;11.478;2022-12-18T01:28:48;0.40;93.70
4677;DHT22;2352;48.180;11.478;2022-12-18T01:31:54;0.40;93.80
4677;DHT22;2352;48.180;11.478;2022-12-18T01:34:58;0.40;94.10
4677;DHT22;2352;48.180;11.478;2022-12-18T01:38:00;0.40;94.10
4677;DHT22;2352;48.180;11.478;2022-12-18T01:41:03;0.40;94.20
4677;DHT22;2352;48.180;11.478;2022-12-18T01:47:46;0.40;94.20
4677;DHT22;2352;48.180;11.478;2022-12-18T01:50:50;0.40;94.30
4677;DHT22;2352;48.180;11.478;2022-12-18T01:53:53;0.30;94.40
4677;DHT22;2352;48.180;11.478;2022-12-18T01:56:56;0.40;94.60
4677;DHT22;2352;48.180;11.478;2022-12-18T02:00:03;0.40;94.50
4677;DHT22;2352;48.180;11.478;2022-12-18T02:03:08;0.40;94.40
4677;DHT22;2352;48.180;11.478;2022-12-18T02:06:15;0.40;94.30
4677;DHT22;2352;48.180;11.478;2022-12-18T02:09:21;0.40;94.30
4677;DHT22;2352;48.180;11.478;2022-12-18T02:12:32;0.40;94.40
4677;DHT22;2352;48.180;11.478;2022-12-18T02:15:41;0.40;94.40
4677;DHT22;2352;48.180;11.478;2022-12-18T02:18:50;0.40;94.50
4677;DHT22;2352;48.180;11.478;2022-12-18T02:21:57;0.40;94.70
4677;DHT22;2352;48.180;11.478;2022-12-18T02:25:19;0.40;94.70
4677;DHT22;2352;48.180;11.478;2022-12-18T02:28:30;0.40;94.60
4677;DHT22;2352;48.180;11.478;2022-12-18T02:31:38;0.50;94.60
4677;DHT22;2352;48.180;11.478;2022-12-18T02:34:43;0.50;94.50
4677;DHT22;2352;48.180;11.478;2022-12-18T02:37:47;0.50;94.50
4677;DHT22;2352;48.180;11.478;2022-12-18T02:40:51;0.50;94.40
4677;DHT22;2352;48.180;11.478;2022-12-18T02:44:00;0.40;94.50
4677;DHT22;2352;48.180;11.478;2022-12-18T02:47:04;0.50;94.70
4677;DHT22;2352;48.180;11.478;2022-12-18T02:50:13;0.40;94.70
4677;DHT22;2352;48.180;11.478;2022-12-18T02:53:24;0.50;94.70
4677;DHT22;2352;48.180;11.478;2022-12-18T02:56:32;0.50;94.50
4677;DHT22;2352;48.180;11.478;2022-12-18T02:59:42;0.50;94.60
4677;DHT22;2352;48.180;11.478;2022-12-18T03:02:53;0.40;94.60
4677;DHT22;2352;48.180;11.478;2022-12-18T03:06:02;0.50;94.60
4677;DHT22;2352;48.180;11.478;2022-12-18T03:09:09;0.40;94.30
4677;DHT22;2352;48.180;11.478;2022-12-18T03:12:16;0.50;94.50
4677;DHT22;2352;48.180;11.478;2022-12-18T03:15:30;0.50;94.50
4677;DHT22;2352;48.180;11.478;2022-12-18T03:18:37;0.40;94.50
4677;DHT22;2352;48.180;11.478;2022-12-18T03:21:44;0.40;94.70
4677;DHT22;2352;48.180;11.478;2022-12-18T03:24:48;0.40;94.60
4677;DHT22;2352;48.180;11.478;2022-12-18T03:27:53;0.30;94.50
4677;DHT22;2352;48.180;11.478;2022-12-18T03:31:00;0.30;94.70
4677;DHT22;2352;48.180;11.478;2022-12-18T03:34:08;0.40;94.70
4677;DHT22;2352;48.180;11.478;2022-12-18T03:37:11;0.40;94.90
4677;DHT22;2352;48.180;11.478;2022-12-18T03:40:14;0.40;94.70
4677;DHT22;2352;48.180;11.478;2022-12-18T03:43:22;0.40;94.70
4677;DHT22;2352;48.180;11.478;2022-12-18T03:46:36;0.40;94.70
4677;DHT22;2352;48.180;11.478;2022-12-18T03:49:47;0.40;94.60
4677;DHT22;2352;48.180;11.478;2022-12-18T03:52:57;0.40;94.60
4677;DHT22;2352;48.180;11.478;2022-12-18T03:56:02;0.40;94.60
4677;DHT22;2352;48.180;11.478;2022-12-18T03:59:08;0.40;94.70
4677;DHT22;2352;48.180;11.478;2022-12-18T04:02:14;0.20;94.80
4677;DHT22;2352;48.180;11.478;2022-12-18T04:05:19;0.20;94.90
4677;DHT22;2352;48.180;11.478;2022-12-18T04:08:23;0.30;95.00
4677;DHT22;2352;48.180;11.478;2022-12-18T04:11:26;0.30;94.80
4677;DHT22;2352;48.180;11.478;2022-12-18T04:14:29;0.30;94.90
4677;DHT22;2352;48.180;11.478;2022-12-18T04:17:38;0.30;94.90
4677;DHT22;2352;48.180;11.478;2022-12-18T04:20:44;0.30;94.80
4677;DHT22;2352;48.180;11.478;2022-12-18T04:23:47;0.30;95.00
4677;DHT22;2352;48.180;11.478;2022-12-18T04:26:50;0.40;94.80
4677;DHT22;2352;48.180;11.478;2022-12-18T04:29:53;0.40;94.80
4677;DHT22;2352;48.180;11.478;2022-12-18T04:32:58;0.40;94.70
4677;DHT22;2352;48.180;11.478;2022-12-18T04:36:00;0.30;94.70
4677;DHT22;2352;48.180;11.478;2022-12-18T04:39:03;0.40;94.70
4677;DHT22;2352;48.180;11.478;2022-12-18T04:42:06;0.40;94.80
4677;DHT22;2352;48.180;11.478;2022-12-18T04:45:10;0.40;94.70
4677;DHT22;2352;48.180;11.478;2022-12-18T04:48:14;0.40;94.80
4677;DHT22;2352;48.180;11.478;2022-12-18T04:51:17;0.40;94.70
4677;DHT22;2352;48.180;11.478;2022-12-18T04:54:27;0.50;94.70
4677;DHT22;2352;48.180;11.478;2022-12-18T04:57:30;0.40;94.70
4677;DHT22;2352;48.180;11.478;2022-12-18T05:00:32;0.40;94.60
4677;DHT22;2352;48.180;11.478;2022-12-18T05:03:37;0.40;94.70
4677;DHT22;2352;48.180;11.478;2022-12-18T05:06:41;0.40;94.70
4677;DHT22;2352;48.180;11.478;2022-12-18T05:09:44;0.50;94.70
4677;DHT22;2352;48.180;11.478;2022-12-18T05:12:47;0.40;94.80
4677;DHT22;2352;48.180;11.478;2022-12-18T05:16:05;0.30;94.60
4677;DHT22;2352;48.180;11.478;2022-12-18T05:19:10;0.30;94.70
4677;DHT22;2352;48.180;11.478;2022-12-18T05:22:13;0.30;94.80
4677;DHT22;2352;48.180;11.478;2022-12-18T05:25:17;0.30;94.80
4677;DHT22;2352;48.180;11.478;2022-12-18T05:28:21;0.40;94.80
4677;DHT22;2352;48.180;11.478;2022-12-18T05:31:25;0.40;94.70
4677;DHT22;2352;48.180;11.478;2022-12-18T05:34:29;0.40;94.70
4677;DHT22;2352;48.180;11.478;2022-12-18T05:37:32;0.50;94.60
4677;DHT22;2352;48.180;11.478;2022-12-18T05:40:43;0.50;94.50
4677;DHT22;2352;48.180;11.478;2022-12-18T05:43:46;0.50;94.40
4677;DHT22;2352;48.180;11.478;2022-12-18T05:46:49;0.50;94.50
4677;DHT22;2352;48.180;11.478;2022-12-18T05:49:54;0.50;94.50
4677;DHT22;2352;48.180;11.478;2022-12-18T05:52:57;0.50;94.60
4677;DHT22;2352;48.180;11.478;2022-12-18T05:56:01;0.50;94.60
4677;DHT22;2352;48.180;11.478;2022-12-18T05:59:04;0.40;94.60
4677;DHT22;2352;48.180;11.478;2022-12-18T06:02:07;0.40;94.60
4677;DHT22;2352;48.180;11.478;2022-12-18T06:05:11;0.50;94.50
4677;DHT22;2352;48.180;11.478;2022-12-18T06:08:14;0.40;94.50
4677;DHT22;2352;48.180;11.478;2022-12-18T06:11:19;0.50;94.50
4677;DHT22;2352;48.180;11.478;2022-12-18T06:14:22;0.50;94.50
4677;DHT22;2352;48.180;11.478;2022-12-18T06:17:27;0.50;94.30
4677;DHT22;2352;48.180;11.478;2022-12-18T06:20:32;0.50;94.30
4677;DHT22;2352;48.180;11.478;2022-12-18T06:23:38;0.40;94.30
4677;DHT22;2352;48.180;11.478;2022-12-18T06:26:41;0.40;94.50
4677;DHT22;2352;48.180;11.478;2022-12-18T06:29:44;0.40;94.50
4677;DHT22;2352;48.180;11.478;2022-12-18T06:32:48;0.40;94.50
4677;DHT22;2352;48.180;11.478;2022-12-18T06:36:01;0.40;94.40
4677;DHT22;2352;48.180;11.478;2022-12-18T06:39:05;0.40;94.50
4677;DHT22;2352;48.180;11.478;2022-12-18T06:42:08;0.40;94.50
4677;DHT22;2352;48.180;11.478;2022-12-18T06:45:11;0.40;94.70
4677;DHT22;2352;48.180;11.478;2022-12-18T06:48:14;0.40;94.80
4677;DHT22;2352;48.180;11.478;2022-12-18T06:51:19;0.40;94.50
4677;DHT22;2352;48.180;11.478;2022-12-18T06:54:22;0.40;94.60
4677;DHT22;2352;48.180;11.478;2022-12-18T06:57:25;0.40;94.40
4677;DHT22;2352;48.180;11.478;2022-12-18T07:00:28;0.40;94.30
4677;DHT22;2352;48.180;11.478;2022-12-18T07:03:31;0.50;94.20
4677;DHT22;2352;48.180;11.478;2022-12-18T07:06:36;0.40;94.10
4677;DHT22;2352;48.180;11.478;2022-12-18T07:09:39;0.40;94.40
4677;DHT22;2352;48.180;11.478;2022-12-18T07:12:41;0.40;94.40
4677;DHT22;2352;48.180;11.478;2022-12-18T07:15:45;0.40;94.40
4677;DHT22;2352;48.180;11.478;2022-12-18T07:18:48;0.40;94.20
4677;DHT22;2352;48.180;11.478;2022-12-18T07:21:52;0.40;94.20
4677;DHT22;2352;48.180;11.478;2022-12-18T07:24:55;0.40;93.90
4677;DHT22;2352;48.180;11.478;2022-12-18T07:27:58;0.40;93.80
4677;DHT22;2352;48.180;11.478;2022-12-18T07:31:02;0.40;93.80
4677;DHT22;2352;48.180;11.478;2022-12-18T07:34:10;0.40;93.80
4677;DHT22;2352;48.180;11.478;2022-12-18T07:37:14;0.40;93.60
4677;DHT22;2352;48.180;11.478;2022-12-18T07:40:17;0.40;93.70
4677;DHT22;2352;48.180;11.478;2022-12-18T07:43:20;0.40;93.60
4677;DHT22;2352;48.180;11.478;2022-12-18T07:46:23;0.40;93.70
4677;DHT22;2352;48.180;11.478;2022-12-18T07:49:27;0.30;93.70
4677;DHT22;2352;48.180;11.478;2022-12-18T07:52:31;0.30;93.80
4677;DHT22;2352;48.180;11.478;2022-12-18T07:55:34;0.30;93.80
4677;DHT22;2352;48.180;11.478;2022-12-18T07:58:58;0.30;93.90
4677;DHT22;2352;48.180;11.478;2022-12-18T08:02:01;0.30;93.90
4677;DHT22;2352;48.180;11.478;2022-12-18T08:05:05;0.40;94.00
4677;DHT22;2352;48.180;11.478;2022-12-18T08:08:09;0.40;93.70
4677;DHT22;2352;48.180;11.478;2022-12-18T08:11:12;0.40;93.90
4677;DHT22;2352;48.180;11.478;2022-12-18T08:14:15;0.40;93.80
4677;DHT22;2352;48.180;11.478;2022-12-18T08:17:19;0.40;94.00
4677;DHT22;2352;48.180;11.478;2022-12-18T08:20:22;0.40;93.80
4677;DHT22;2352;48.180;11.478;2022-12-18T08:23:26;0.40;93.70
4677;DHT22;2352;48.180;11.478;2022-12-18T08:26:30;0.40;93.70
4677;DHT22;2352;48.180;11.478;2022-12-18T08:29:35;0.30;93.90
4677;DHT22;2352;48.180;11.478;2022-12-18T08:32:38;0.40;93.90
4677;DHT22;2352;48.180;11.478;2022-12-18T08:35:40;0.40;94.00
4677;DHT22;2352;48.180;11.478;2022-12-18T08:38:48;0.40;93.90
4677;DHT22;2352;48.180;11.478;2022-12-18T08:41:51;0.40;94.20
4677;DHT22;2352;48.180;11.478;2022-12-18T08:45:11;0.50;94.10
4677;DHT22;2352;48.180;11.478;2022-12-18T08:48:14;0.50;94.00
4677;DHT22;2352;48.180;11.478;2022-12-18T08:51:23;0.50;94.30
4677;DHT22;2352;48.180;11.478;2022-12-18T08:54:28;0.50;94.30
4677;DHT22;2352;48.180;11.478;2022-12-18T08:57:31;0.60;94.30
4677;DHT22;2352;48.180;11.478;2022-12-18T09:00:34;0.60;94.30
4677;DHT22;2352;48.180;11.478;2022-12-18T09:03:37;0.60;94.20
4677;DHT22;2352;48.180;11.478;2022-12-18T09:06:41;0.60;94.10
4677;DHT22;2352;48.180;11.478;2022-12-18T09:09:45;0.60;93.90
4677;DHT22;2352;48.180;11.478;2022-12-18T09:12:48;0.60;93.90
4677;DHT22;2352;48.180;11.478;2022-12-18T09:15:53;0.60;93.90
4677;DHT22;2352;48.180;11.478;2022-12-18T09:18:56;0.70;93.90
4677;DHT22;2352;48.180;11.478;2022-12-18T09:22:01;0.70;93.90
4677;DHT22;2352;48.180;11.478;2022-12-18T09:25:06;0.70;94.00
4677;DHT22;2352;48.180;11.478;2022-12-18T09:28:15;0.80;94.00
4677;DHT22;2352;48.180;11.478;2022-12-18T09:31:20;0.70;93.90
4677;DHT22;2352;48.180;11.478;2022-12-18T09:34:23;0.70;94.00
4677;DHT22;2352;48.180;11.478;2022-12-18T09:37:26;0.80;93.80
4677;DHT22;2352;48.180;11.478;2022-12-18T09:40:34;0.80;93.60
4677;DHT22;2352;48.180;11.478;2022-12-18T09:43:43;0.80;93.70
4677;DHT22;2352;48.180;11.478;2022-12-18T09:46:52;0.80;93.80
4677;DHT22;2352;48.180;11.478;2022-12-18T09:49:58;0.90;94.00
4677;DHT22;2352;48.180;11.478;2022-12-18T09:53:06;0.90;93.70
4677;DHT22;2352;48.180;11.478;2022-12-18T09:56:17;0.90;93.80
4677;DHT22;2352;48.180;11.478;2022-12-18T09:59:25;0.90;94.00
4677;DHT22;2352;48.180;11.478;2022-12-18T10:02:30;0.90;93.80
4677;DHT22;2352;48.180;11.478;2022-12-18T10:05:39;1.00;93.80
4677;DHT22;2352;48.180;11.478;2022-12-18T10:08:51;1.10;93.50
4677;DHT22;2352;48.180;11.478;2022-12-18T10:12:04;1.10;93.10
4677;DHT22;2352;48.180;11.478;2022-12-18T10:15:15;1.10;93.50
4677;DHT22;2352;48.180;11.478;2022-12-18T10:18:28;1.10;93.20
4677;DHT22;2352;48.180;11.478;2022-12-18T10:21:37;1.10;93.00
4677;DHT22;2352;48.180;11.478;2022-12-18T10:24:46;1.10;92.90
4677;DHT22;2352;48.180;11.478;2022-12-18T10:27:56;1.10;93.10
4677;DHT22;2352;48.180;11.478;2022-12-18T10:31:00;1.10;93.50
4677;DHT22;2352;48.180;11.478;2022-12-18T10:34:03;1.10;93.00
4677;DHT22;2352;48.180;11.478;2022-12-18T10:37:10;1.10;93.10
4677;DHT22;2352;48.180;11.478;2022-12-18T10:40:15;1.20;92.80
4677;DHT22;2352;48.180;11.478;2022-12-18T10:43:27;1.20;92.70
4677;DHT22;2352;48.180;11.478;2022-12-18T10:46:31;1.20;92.40
4677;DHT22;2352;48.180;11.478;2022-12-18T10:49:35;1.20;92.40
4677;DHT22;2352;48.180;11.478;2022-12-18T10:52:38;1.10;92.50
4677;DHT22;2352;48.180;11.478;2022-12-18T10:55:48;1.20;92.50
4677;DHT22;2352;48.180;11.478;2022-12-18T10:58:58;1.10;92.70
4677;DHT22;2352;48.180;11.478;2022-12-18T11:02:25;1.10;92.50
4677;DHT22;2352;48.180;11.478;2022-12-18T11:05:30;1.00;92.50
4677;DHT22;2352;48.180;11.478;2022-12-18T11:08:34;1.00;92.70
4677;DHT22;2352;48.180;11.478;2022-12-18T11:11:37;1.00;92.90
4677;DHT22;2352;48.180;11.478;2022-12-18T11:14:47;1.00;92.80
4677;DHT22;2352;48.180;11.478;2022-12-18T11:17:51;1.00;92.90
4677;DHT22;2352;48.180;11.478;2022-12-18T11:20:56;1.00;92.90
4677;DHT22;2352;48.180;11.478;2022-12-18T11:24:00;1.00;92.90
4677;DHT22;2352;48.180;11.478;2022-12-18T11:27:05;1.00;93.10
4677;DHT22;2352;48.180;11.478;2022-12-18T11:30:24;1.10;93.10
4677;DHT22;2352;48.180;11.478;2022-12-18T11:33:27;1.10;92.40
4677;DHT22;2352;48.180;11.478;2022-12-18T11:36:33;1.10;92.50
4677;DHT22;2352;48.180;11.478;2022-12-18T11:39:41;1.10;92.80
4677;DHT22;2352;48.180;11.478;2022-12-18T11:42:48;1.20;92.60
4677;DHT22;2352;48.180;11.478;2022-12-18T11:45:58;1.20;92.40
4677;DHT22;2352;48.180;11.478;2022-12-18T11:49:07;1.20;92.40
4677;DHT22;2352;48.180;11.478;2022-12-18T11:52:18;1.20;92.50
4677;DHT22;2352;48.180;11.478;2022-12-18T11:55:30;1.20;92.60
4677;DHT22;2352;48.180;11.478;2022-12-18T11:58:54;1.20;92.80
4677;DHT22;2352;48.180;11.478;2022-12-18T12:02:09;1.10;92.70
4677;DHT22;2352;48.180;11.478;2022-12-18T12:05:29;1.10;93.10
4677;DHT22;2352;48.180;11.478;2022-12-18T12:08:47;1.10;93.20
4677;DHT22;2352;48.180;11.478;2022-12-18T12:12:04;1.20;93.00
4677;DHT22;2352;48.180;11.478;2022-12-18T12:15:22;1.30;92.70
4677;DHT22;2352;48.180;11.478;2022-12-18T12:18:38;1.20;92.60
4677;DHT22;2352;48.180;11.478;2022-12-18T12:21:51;1.20;92.90
4677;DHT22;2352;48.180;11.478;2022-12-18T12:25:05;1.20;92.90
4677;DHT22;2352;48.180;11.478;2022-12-18T12:28:28;1.30;93.20
4677;DHT22;2352;48.180;11.478;2022-12-18T12:31:58;1.20;92.50
4677;DHT22;2352;48.180;11.478;2022-12-18T12:35:15;1.30;92.60
4677;DHT22;2352;48.180;11.478;2022-12-18T12:38:26;1.20;92.60
4677;DHT22;2352;48.180;11.478;2022-12-18T12:41:31;1.20;92.40
4677;DHT22;2352;48.180;11.478;2022-12-18T12:44:55;1.20;92.30
4677;DHT22;2352;48.180;11.478;2022-12-18T12:48:02;1.10;92.80
4677;DHT22;2352;48.180;11.478;2022-12-18T12:51:13;1.20;92.50
4677;DHT22;2352;48.180;11.478;2022-12-18T12:54:19;1.20;92.50
4677;DHT22;2352;48.180;11.478;2022-12-18T12:57:29;1.20;92.30
4677;DHT22;2352;48.180;11.478;2022-12-18T13:00:39;1.20;92.30
4677;DHT22;2352;48.180;11.478;2022-12-18T13:03:51;1.10;92.80
4677;DHT22;2352;48.180;11.478;2022-12-18T13:07:01;1.10;92.80
4677;DHT22;2352;48.180;11.478;2022-12-18T13:10:32;1.20;93.10
4677;DHT22;2352;48.180;11.478;2022-12-18T13:13:48;1.10;92.30
4677;DHT22;2352;48.180;11.478;2022-12-18T13:16:52;1.10;92.50
4677;DHT22;2352;48.180;11.478;2022-12-18T13:20:16;1.20;92.60
4677;DHT22;2352;48.180;11.478;2022-12-18T13:23:35;1.10;92.40
4677;DHT22;2352;48.180;11.478;2022-12-18T13:26:38;1.00;92.80
4677;DHT22;2352;48.180;11.478;2022-12-18T13:29:44;1.10;92.70
4677;DHT22;2352;48.180;11.478;2022-12-18T13:32:48;1.20;92.40
4677;DHT22;2352;48.180;11.478;2022-12-18T13:35:52;1.10;92.30
4677;DHT22;2352;48.180;11.478;2022-12-18T13:39:15;1.00;92.40
4677;DHT22;2352;48.180;11.478;2022-12-18T13:42:40;1.00;92.60
4677;DHT22;2352;48.180;11.478;2022-12-18T13:46:06;1.00;92.60
4677;DHT22;2352;48.180;11.478;2022-12-18T13:49:22;1.00;92.60
4677;DHT22;2352;48.180;11.478;2022-12-18T13:52:28;0.90;92.60
4677;DHT22;2352;48.180;11.478;2022-12-18T13:55:33;0.80;92.50
4677;DHT22;2352;48.180;11.478;2022-12-18T13:58:37;0.70;92.70
4677;DHT22;2352;48.180;11.478;2022-12-18T14:01:46;0.70;93.00
4677;DHT22;2352;48.180;11.478;2022-12-18T14:04:50;0.80;93.10
4677;DHT22;2352;48.180;11.478;2022-12-18T14:07:54;0.80;92.90
4677;DHT22;2352;48.180;11.478;2022-12-18T14:10:58;0.80;93.00
4677;DHT22;2352;48.180;11.478;2022-12-18T14:14:03;0.80;92.70
4677;DHT22;2352;48.180;11.478;2022-12-18T14:17:10;0.80;92.60
4677;DHT22;2352;48.180;11.478;2022-12-18T14:20:14;0.60;92.80
4677;DHT22;2352;48.180;11.478;2022-12-18T14:23:29;0.60;92.90
4677;DHT22;2352;48.180;11.478;2022-12-18T14:26:34;0.60;93.10
4677;DHT22;2352;48.180;11.478;2022-12-18T14:29:43;0.70;93.30
4677;DHT22;2352;48.180;11.478;2022-12-18T14:33:00;0.70;93.30
4677;DHT22;2352;48.180;11.478;2022-12-18T14:36:04;0.80;93.20
4677;DHT22;2352;48.180;11.478;2022-12-18T14:39:16;0.80;93.00
4677;DHT22;2352;48.180;11.478;2022-12-18T14:42:21;0.70;92.90
4677;DHT22;2352;48.180;11.478;2022-12-18T14:45:37;0.80;92.90
4677;DHT22;2352;48.180;11.478;2022-12-18T14:48:47;0.70;93.00
4677;DHT22;2352;48.180;11.478;2022-12-18T14:51:51;0.70;93.10
4677;DHT22;2352;48.180;11.478;2022-12-18T14:54:55;0.70;93.10
4677;DHT22;2352;48.180;11.478;2022-12-18T14:57:59;0.80;92.90
4677;DHT22;2352;48.180;11.478;2022-12-18T15:01:02;0.80;94.70
4677;DHT22;2352;48.180;11.478;2022-12-18T15:04:23;0.70;93.20
4677;DHT22;2352;48.180;11.478;2022-12-18T15:07:27;0.80;93.10
4677;DHT22;2352;48.180;11.478;2022-12-18T15:10:31;0.70;93.10
4677;DHT22;2352;48.180;11.478;2022-12-18T15:13:36;0.70;93.20
4677;DHT22;2352;48.180;11.478;2022-12-18T15:16:39;0.70;93.40
4677;DHT22;2352;48.180;11.478;2022-12-18T15:19:48;0.70;93.40
4677;DHT22;2352;48.180;11.478;2022-12-18T15:22:52;0.70;93.40
4677;DHT22;2352;48.180;11.478;2022-12-18T15:25:57;0.70;93.30
4677;DHT22;2352;48.180;11.478;2022-12-18T15:29:02;0.70;93.40
4677;DHT22;2352;48.180;11.478;2022-12-18T15:32:15;0.60;93.50
4677;DHT22;2352;48.180;11.478;2022-12-18T15:35:22;0.70;93.70
4677;DHT22;2352;48.180;11.478;2022-12-18T15:38:26;0.70;93.50
4677;DHT22;2352;48.180;11.478;2022-12-18T15:41:31;0.70;93.70
4677;DHT22;2352;48.180;11.478;2022-12-18T15:44:37;0.70;93.40
4677;DHT22;2352;48.180;11.478;2022-12-18T15:47:40;0.70;93.40
4677;DHT22;2352;48.180;11.478;2022-12-18T15:50:44;0.70;93.40
4677;DHT22;2352;48.180;11.478;2022-12-18T15:53:48;0.70;93.40
4677;DHT22;2352;48.180;11.478;2022-12-18T15:56:51;0.70;93.40
4677;DHT22;2352;48.180;11.478;2022-12-18T16:00:14;0.70;93.60
4677;DHT22;2352;48.180;11.478;2022-12-18T16:03:17;0.70;93.50
4677;DHT22;2352;48.180;11.478;2022-12-18T16:06:21;0.70;93.50
4677;DHT22;2352;48.180;11.478;2022-12-18T16:09:24;0.70;93.50
4677;DHT22;2352;48.180;11.478;2022-12-18T16:12:27;0.70;93.60
4677;DHT22;2352;48.180;11.478;2022-12-18T16:15:31;0.70;93.50
4677;DHT22;2352;48.180;11.478;2022-12-18T16:18:34;0.70;93.70
4677;DHT22;2352;48.180;11.478;2022-12-18T16:21:37;0.70;93.40
4677;DHT22;2352;48.180;11.478;2022-12-18T16:24:40;0.60;93.50
4677;DHT22;2352;48.180;11.478;2022-12-18T16:27:44;0.60;93.70
4677;DHT22;2352;48.180;11.478;2022-12-18T16:30:50;0.60;93.90
4677;DHT22;2352;48.180;11.478;2022-12-18T16:34:14;0.50;94.00
4677;DHT22;2352;48.180;11.478;2022-12-18T16:37:23;0.60;94.20
4677;DHT22;2352;48.180;11.478;2022-12-18T16:40:26;0.60;93.90
4677;DHT22;2352;48.180;11.478;2022-12-18T16:43:29;0.60;93.90
4677;DHT22;2352;48.180;11.478;2022-12-18T16:46:33;0.60;94.00
4677;DHT22;2352;48.180;11.478;2022-12-18T16:49:36;0.60;94.10
4677;DHT22;2352;48.180;11.478;2022-12-18T16:52:40;0.60;94.10
4677;DHT22;2352;48.180;11.478;2022-12-18T16:55:43;0.70;94.00
4677;DHT22;2352;48.180;11.478;2022-12-18T16:58:50;0.70;93.60
4677;DHT22;2352;48.180;11.478;2022-12-18T17:01:54;0.70;93.60
4677;DHT22;2352;48.180;11.478;2022-12-18T17:04:58;0.70;93.60
4677;DHT22;2352;48.180;11.478;2022-12-18T17:08:01;0.70;93.30
4677;DHT22;2352;48.180;11.478;2022-12-18T17:11:05;0.60;93.40
4677;DHT22;2352;48.180;11.478;2022-12-18T17:14:11;0.60;93.60
4677;DHT22;2352;48.180;11.478;2022-12-18T17:17:16;0.60;93.70
4677;DHT22;2352;48.180;11.478;2022-12-18T17:20:23;0.60;93.60
4677;DHT22;2352;48.180;11.478;2022-12-18T17:23:26;0.60;93.70
4677;DHT22;2352;48.180;11.478;2022-12-18T17:26:29;0.70;93.50
4677;DHT22;2352;48.180;11.478;2022-12-18T17:29:32;0.60;93.60
4677;DHT22;2352;48.180;11.478;2022-12-18T17:32:36;0.60;93.90
4677;DHT22;2352;48.180;11.478;2022-12-18T17:35:39;0.70;93.70
4677;DHT22;2352;48.180;11.478;2022-12-18T17:38:43;0.70;93.80
4677;DHT22;2352;48.180;11.478;2022-12-18T17:41:51;0.80;93.70
4677;DHT22;2352;48.180;11.478;2022-12-18T17:44:54;0.60;93.70
4677;DHT22;2352;48.180;11.478;2022-12-18T17:47:58;0.70;93.70
4677;DHT22;2352;48.180;11.478;2022-12-18T17:51:01;0.70;93.90
4677;DHT22;2352;48.180;11.478;2022-12-18T17:54:04;0.70;93.90
4677;DHT22;2352;48.180;11.478;2022-12-18T17:57:07;0.70;93.50
4677;DHT22;2352;48.180;11.478;2022-12-18T18:00:12;0.60;93.80
4677;DHT22;2352;48.180;11.478;2022-12-18T18:03:17;0.60;93.90
4677;DHT22;2352;48.180;11.478;2022-12-18T18:06:21;0.60;93.90
4677;DHT22;2352;48.180;11.478;2022-12-18T18:09:24;0.70;93.80
4677;DHT22;2352;48.180;11.478;2022-12-18T18:12:27;0.70;93.70
4677;DHT22;2352;48.180;11.478;2022-12-18T18:15:54;0.70;93.60
4677;DHT22;2352;48.180;11.478;2022-12-18T18:18:59;0.70;93.60
4677;DHT22;2352;48.180;11.478;2022-12-18T18:22:03;0.60;93.50
4677;DHT22;2352;48.180;11.478;2022-12-18T18:25:06;0.60;93.60
4677;DHT22;2352;48.180;11.478;2022-12-18T18:28:10;0.60;93.90
4677;DHT22;2352;48.180;11.478;2022-12-18T18:31:14;0.60;94.00
4677;DHT22;2352;48.180;11.478;2022-12-18T18:34:20;0.60;94.10
4677;DHT22;2352;48.180;11.478;2022-12-18T18:37:23;0.60;94.10
4677;DHT22;2352;48.180;11.478;2022-12-18T18:40:26;0.60;93.90
4677;DHT22;2352;48.180;11.478;2022-12-18T18:43:30;0.60;93.90
4677;DHT22;2352;48.180;11.478;2022-12-18T18:46:33;0.60;93.80
4677;DHT22;2352;48.180;11.478;2022-12-18T18:49:37;0.60;93.90
4677;DHT22;2352;48.180;11.478;2022-12-18T18:52:40;0.60;93.80
4677;DHT22;2352;48.180;11.478;2022-12-18T18:55:45;0.60;93.90
4677;DHT22;2352;48.180;11.478;2022-12-18T18:59:08;0.60;93.90
4677;DHT22;2352;48.180;11.478;2022-12-18T19:02:11;0.60;93.90
4677;DHT22;2352;48.180;11.478;2022-12-18T19:05:16;0.60;93.80
4677;DHT22;2352;48.180;11.478;2022-12-18T19:08:19;0.60;93.80
4677;DHT22;2352;48.180;11.478;2022-12-18T19:11:23;0.60;93.90
4677;DHT22;2352;48.180;11.478;2022-12-18T19:14:47;0.60;93.90
4677;DHT22;2352;48.180;11.478;2022-12-18T19:17:50;0.60;93.90
4677;DHT22;2352;48.180;11.478;2022-12-18T19:20:57;0.60;93.70
4677;DHT22;2352;48.180;11.478;2022-12-18T19:24:00;0.60;93.80
4677;DHT22;2352;48.180;11.478;2022-12-18T19:27:04;0.60;94.00
4677;DHT22;2352;48.180;11.478;2022-12-18T19:30:08;0.60;93.90
4677;DHT22;2352;48.180;11.478;2022-12-18T19:33:11;0.50;93.90
4677;DHT22;2352;48.180;11.478;2022-12-18T19:36:37;0.60;93.80
4677;DHT22;2352;48.180;11.478;2022-12-18T19:39:40;0.60;93.80
4677;DHT22;2352;48.180;11.478;2022-12-18T19:42:43;0.50;93.80
4677;DHT22;2352;48.180;11.478;2022-12-18T19:45:53;0.50;94.00
4677;DHT22;2352;48.180;11.478;2022-12-18T19:48:58;0.50;94.00
4677;DHT22;2352;48.180;11.478;2022-12-18T19:52:02;0.60;93.90
4677;DHT22;2352;48.180;11.478;2022-12-18T19:55:06;0.60;93.70
4677;DHT22;2352;48.180;11.478;2022-12-18T19:58:09;0.50;93.70
4677;DHT22;2352;48.180;11.478;2022-12-18T20:01:13;0.50;94.00
4677;DHT22;2352;48.180;11.478;2022-12-18T20:04:17;0.50;93.80
4677;DHT22;2352;48.180;11.478;2022-12-18T20:07:22;0.50;93.70
4677;DHT22;2352;48.180;11.478;2022-12-18T20:10:25;0.50;94.20
4677;DHT22;2352;48.180;11.478;2022-12-18T20:13:28;0.60;93.60
4677;DHT22;2352;48.180;11.478;2022-12-18T20:16:31;0.60;93.90
4677;DHT22;2352;48.180;11.478;2022-12-18T20:19:34;0.50;93.80